createdAt,value
2022-08-20T00:09:02.836Z,99.99
2022-08-20T00:10:02.816Z,99.99
2022-08-20T00:11:02.799Z,99.99
2022-08-20T00:12:02.785Z,99.99
2022-08-20T00:13:02.765Z,99.99
2022-08-20T00:14:02.750Z,99.99
2022-08-20T00:15:02.729Z,99.99
2022-08-20T00:16:02.712Z,99.99
2022-08-20T00:17:02.694Z,99.99
2022-08-20T00:18:02.675Z,99.99
2022-08-20T00:19:02.664Z,99.99
2022-08-20T00:20:02.643Z,99.99
2022-08-20T00:21:02.626Z,99.99
2022-08-20T00:22:02.605Z,99.99
2022-08-20T00:23:04.395Z,99.99
2022-08-20T00:24:02.573Z,99.99
2022-08-20T00:25:02.554Z,99.99
2022-08-20T00:26:02.535Z,99.99
2022-08-20T00:27:02.525Z,99.99
2022-08-20T00:28:02.500Z,99.99
2022-08-20T00:29:02.486Z,99.99
2022-08-20T00:30:02.471Z,99.99
2022-08-20T00:31:02.450Z,99.99
2022-08-20T00:32:02.432Z,99.99
2022-08-20T00:33:02.415Z,99.99
2022-08-20T00:34:02.398Z,99.99
2022-08-20T00:35:02.382Z,99.99
2022-08-20T00:36:02.361Z,99.99
2022-08-20T00:37:02.347Z,99.99
2022-08-20T00:38:02.599Z,99.99
2022-08-20T00:47:02.163Z,99.99
2022-08-20T00:48:02.143Z,99.99
2022-08-20T00:49:02.321Z,99.99
2022-08-20T00:50:02.108Z,99.99
2022-08-20T00:51:02.092Z,99.99
2022-08-20T00:52:02.078Z,99.99
2022-08-20T00:53:02.057Z,99.99
2022-08-20T00:54:02.036Z,99.99
2022-08-20T00:55:02.021Z,99.99
2022-08-20T00:56:02.001Z,99.99
2022-08-20T00:57:01.984Z,99.99
2022-08-20T00:58:02.206Z,99.99
2022-08-20T00:59:01.949Z,99.99
2022-08-20T01:00:01.930Z,99.99
2022-08-20T01:01:01.915Z,99.99
2022-08-20T01:02:01.982Z,99.99
2022-08-20T01:03:01.877Z,99.99
2022-08-20T01:04:01.859Z,99.99
2022-08-20T01:05:01.842Z,99.99
2022-08-20T01:06:01.819Z,99.99
2022-08-20T01:07:01.804Z,99.99
2022-08-20T01:08:01.785Z,99.99
2022-08-20T01:09:01.767Z,99.99
2022-08-20T01:10:01.751Z,99.99
2022-08-20T01:11:01.732Z,99.99
2022-08-20T01:12:01.713Z,99.99
2022-08-20T01:13:01.699Z,99.99
2022-08-20T01:14:01.678Z,99.99
2022-08-20T01:15:01.660Z,99.99
2022-08-20T01:16:01.645Z,99.99
2022-08-20T01:17:01.629Z,99.99
2022-08-20T01:23:01.513Z,99.99
2022-08-20T01:24:01.496Z,99.99
2022-08-20T01:25:01.479Z,99.99
2022-08-20T01:26:01.460Z,99.99
2022-08-20T01:27:01.446Z,99.99
2022-08-20T01:28:01.734Z,99.99
2022-08-20T01:29:01.407Z,99.99
2022-08-20T01:30:01.386Z,99.99
2022-08-20T01:31:01.371Z,99.99
2022-08-20T01:32:01.526Z,99.99
2022-08-20T01:33:01.335Z,99.99
2022-08-20T01:34:01.315Z,99.99
2022-08-20T01:35:01.301Z,99.99
2022-08-20T01:36:01.278Z,99.99
2022-08-20T01:37:01.263Z,99.99
2022-08-20T01:38:01.244Z,99.99
2022-08-20T01:39:01.225Z,99.99
2022-08-20T01:40:01.272Z,99.99
2022-08-20T01:41:01.190Z,99.99
2022-08-20T01:42:01.168Z,99.99
2022-08-20T01:43:01.154Z,99.99
2022-08-20T01:44:01.137Z,99.99
2022-08-20T01:45:01.766Z,99.99
2022-08-20T01:46:01.098Z,99.99
2022-08-20T01:47:01.079Z,99.99
2022-08-20T01:48:01.145Z,99.99
2022-08-20T01:49:01.047Z,99.99
2022-08-20T01:50:01.027Z,99.99
2022-08-20T01:51:01.006Z,99.99
2022-08-20T01:52:00.989Z,99.99
2022-08-20T01:53:00.971Z,99.99
2022-08-20T01:54:00.950Z,99.99
2022-08-20T01:55:00.934Z,99.99
2022-08-20T01:56:00.915Z,99.99
2022-08-20T01:59:00.862Z,99.99
2022-08-20T02:00:00.843Z,99.99
2022-08-20T02:01:00.824Z,99.99
2022-08-20T02:02:00.833Z,99.99
2022-08-20T02:03:00.786Z,99.99
2022-08-20T02:04:00.775Z,99.99
2022-08-20T02:05:00.752Z,99.99
2022-08-20T02:06:00.733Z,99.99
2022-08-20T02:07:00.715Z,99.99
2022-08-20T02:08:00.696Z,99.99
2022-08-20T02:09:00.685Z,99.99
2022-08-20T02:10:00.660Z,99.99
2022-08-20T02:11:00.645Z,99.99
2022-08-20T02:12:00.623Z,99.99
2022-08-20T02:13:00.615Z,99.99
2022-08-20T02:14:00.587Z,99.99
2022-08-20T02:15:00.571Z,99.99
2022-08-20T02:16:00.550Z,99.99
2022-08-20T02:17:00.532Z,99.99
2022-08-20T02:18:00.514Z,99.99
2022-08-20T02:19:00.494Z,99.99
2022-08-20T02:20:00.477Z,99.99
2022-08-20T02:21:00.459Z,99.99
2022-08-20T02:22:00.444Z,99.99
2022-08-20T02:23:00.426Z,99.99
2022-08-20T02:24:00.404Z,99.99
2022-08-20T02:25:00.385Z,99.99
2022-08-20T02:26:00.370Z,99.99
2022-08-20T02:27:00.347Z,99.99
2022-08-20T02:28:00.337Z,99.99
2022-08-20T02:29:01.187Z,99.99
2022-08-20T02:30:00.298Z,99.99
2022-08-20T02:31:00.274Z,99.99
2022-08-20T02:32:32.124Z,99.99
2022-08-20T02:33:00.238Z,99.99
2022-08-20T02:34:21.847Z,99.99
2022-08-20T02:35:00.203Z,99.99
2022-08-20T02:36:00.187Z,99.99
2022-08-20T02:37:00.167Z,99.99
2022-08-20T02:38:00.149Z,99.99
2022-08-20T02:39:00.131Z,99.99
2022-08-20T02:40:00.237Z,99.99
2022-08-20T02:41:00.096Z,99.99
2022-08-20T02:42:00.078Z,99.99
2022-08-20T02:43:00.070Z,99.99
2022-08-20T02:44:00.040Z,99.99
2022-08-20T02:45:00.022Z,99.99
2022-08-20T02:46:00.015Z,99.99
2022-08-20T02:46:59.984Z,99.99
2022-08-20T03:08:59.584Z,99.99
2022-08-20T03:09:59.567Z,99.99
2022-08-20T03:10:59.550Z,99.99
2022-08-20T03:49:00.505Z,99.99
2022-08-20T03:49:58.836Z,99.99
2022-08-20T03:50:58.818Z,99.99
2022-08-20T03:51:58.808Z,99.99
2022-08-20T03:52:58.781Z,99.99
2022-08-20T04:23:58.213Z,99.99
2022-08-20T04:24:58.190Z,99.99
2022-08-20T04:25:58.173Z,99.99
2022-08-20T04:26:58.156Z,99.99
2022-08-20T04:27:58.600Z,99.99
2022-08-20T04:28:58.119Z,99.99
2022-08-20T04:29:58.101Z,99.99
2022-08-20T04:30:58.081Z,99.99
2022-08-20T04:57:57.749Z,99.99
2022-08-20T04:58:57.568Z,99.99
2022-08-20T04:59:59.444Z,99.99
2022-08-20T05:01:01.372Z,99.99
2022-08-20T05:01:57.508Z,99.99
2022-08-20T05:02:57.488Z,99.99
2022-08-20T05:03:57.474Z,99.99
2022-08-20T05:04:57.452Z,99.99
2022-08-20T05:05:57.435Z,99.99
2022-08-20T05:06:57.412Z,99.99
2022-08-20T05:07:57.529Z,99.99
2022-08-20T05:08:57.375Z,99.99
2022-08-20T05:09:57.357Z,99.99
2022-08-20T05:35:56.877Z,99.99
2022-08-20T05:36:56.856Z,99.99
2022-08-20T05:37:57.105Z,99.99
2022-08-20T05:38:56.821Z,99.99
2022-08-20T05:39:56.941Z,99.99
2022-08-20T05:40:56.784Z,99.99
2022-08-20T05:41:56.766Z,99.99
2022-08-20T05:42:56.748Z,99.99
2022-08-20T05:43:56.730Z,99.99
2022-08-20T05:44:56.712Z,99.99
2022-08-20T05:45:56.906Z,99.99
2022-08-20T05:46:56.710Z,99.99
2022-08-20T05:47:56.767Z,99.99
2022-08-20T06:14:56.157Z,99.99
2022-08-20T06:15:56.141Z,99.99
2022-08-20T06:16:57.680Z,99.99
2022-08-20T06:17:58.372Z,99.99
2022-08-20T06:18:58.188Z,99.99
2022-08-20T06:19:56.070Z,99.99
2022-08-20T06:20:56.056Z,99.99
2022-08-20T06:21:56.034Z,99.99
2022-08-20T06:22:56.014Z,99.99
2022-08-20T06:23:57.764Z,99.99
2022-08-20T06:24:55.976Z,99.99
2022-08-20T06:25:55.955Z,99.99
2022-08-20T06:48:55.535Z,99.99
2022-08-20T06:49:55.513Z,99.99
2022-08-20T06:50:55.497Z,99.99
2022-08-20T06:51:55.479Z,99.99
2022-08-20T06:52:55.465Z,99.99
2022-08-20T06:53:55.447Z,99.99
2022-08-20T06:54:55.434Z,99.99
2022-08-20T06:55:55.405Z,99.99
2022-08-20T06:56:55.391Z,99.99
2022-08-20T06:57:55.374Z,99.99
2022-08-20T06:58:55.351Z,99.99
2022-08-20T06:59:55.333Z,99.99
2022-08-20T07:00:55.388Z,99.99
2022-08-20T07:01:55.294Z,99.99
2022-08-20T07:02:55.325Z,99.99
2022-08-20T07:24:54.878Z,99.99
2022-08-20T07:25:54.857Z,99.99
2022-08-20T07:26:56.967Z,99.99
2022-08-20T07:27:54.820Z,99.99
2022-08-20T07:28:54.803Z,99.99
2022-08-20T07:29:54.782Z,99.99
2022-08-20T07:30:56.481Z,99.99
2022-08-20T07:31:54.745Z,99.99
2022-08-20T07:32:54.727Z,99.99
2022-08-20T07:33:54.709Z,99.99
2022-08-20T07:34:54.692Z,99.99
2022-08-20T07:35:54.671Z,99.99
2022-08-20T07:36:55.054Z,99.99
2022-08-20T07:37:54.637Z,99.99
2022-08-20T07:38:54.616Z,99.99
2022-08-20T07:39:54.668Z,99.99
2022-08-20T07:40:54.585Z,99.99
2022-08-20T07:41:56.625Z,99.99
2022-08-20T07:42:54.728Z,99.99
2022-08-20T08:00:54.246Z,99.99
2022-08-20T08:01:54.198Z,99.99
2022-08-20T08:02:54.181Z,99.99
2022-08-20T08:03:54.161Z,99.99
2022-08-20T08:04:54.149Z,99.99
2022-08-20T08:05:54.127Z,99.99
2022-08-20T08:06:54.109Z,99.99
2022-08-20T08:07:54.098Z,99.99
2022-08-20T08:08:54.079Z,99.99
2022-08-20T08:09:54.054Z,99.99
2022-08-20T08:10:54.038Z,99.99
2022-08-20T08:11:54.017Z,99.99
2022-08-20T08:12:54.002Z,99.99
2022-08-20T08:13:53.982Z,99.99
2022-08-20T08:14:53.964Z,99.99
2022-08-20T08:15:53.947Z,99.99
2022-08-20T08:16:53.935Z,99.99
2022-08-20T08:17:53.911Z,99.99
2022-08-20T08:18:53.894Z,99.99
2022-08-20T08:19:53.876Z,99.99
2022-08-20T08:20:53.869Z,99.99
2022-08-20T08:21:53.856Z,99.99
2022-08-20T08:22:53.868Z,99.99
2022-08-20T08:23:53.803Z,99.99
2022-08-20T08:24:57.377Z,99.99
2022-08-20T08:40:59.757Z,99.99
2022-08-20T08:41:53.494Z,99.99
2022-08-20T08:42:53.473Z,99.99
2022-08-20T08:43:53.535Z,99.99
2022-08-20T08:44:53.439Z,99.99
2022-08-20T08:45:53.421Z,99.99
2022-08-20T08:46:53.412Z,99.99
2022-08-20T08:47:53.385Z,99.99
2022-08-20T08:48:53.374Z,99.99
2022-08-20T08:49:53.350Z,99.99
2022-08-20T08:50:54.818Z,99.99
2022-08-20T08:51:53.317Z,99.99
2022-08-20T08:52:53.298Z,99.99
2022-08-20T08:53:53.283Z,99.99
2022-08-20T08:54:53.267Z,99.99
2022-08-20T08:55:53.249Z,99.99
2022-08-20T08:56:53.228Z,99.99
2022-08-20T08:57:53.209Z,99.99
2022-08-20T08:58:53.194Z,99.99
2022-08-20T09:00:03.943Z,99.99
2022-08-20T09:00:57.512Z,99.99
2022-08-20T09:01:56.852Z,99.99
2022-08-20T09:13:52.933Z,99.99
2022-08-20T09:14:52.920Z,99.99
2022-08-20T09:15:52.898Z,99.99
2022-08-20T09:16:53.637Z,99.99
2022-08-20T09:17:52.957Z,99.99
2022-08-20T09:18:52.863Z,99.99
2022-08-20T09:19:52.830Z,99.99
2022-08-20T09:20:52.813Z,99.99
2022-08-20T09:21:52.808Z,99.99
2022-08-20T09:22:52.860Z,99.99
2022-08-20T09:23:52.762Z,99.99
2022-08-20T09:24:52.744Z,99.99
2022-08-20T09:25:52.726Z,99.99
2022-08-20T09:26:52.712Z,99.99
2022-08-20T09:27:52.702Z,99.99
2022-08-20T09:28:52.675Z,99.99
2022-08-20T09:29:52.657Z,99.99
2022-08-20T09:30:52.643Z,99.99
2022-08-20T09:31:52.622Z,99.99
2022-08-20T09:32:52.657Z,99.99
2022-08-20T09:33:52.592Z,97.52
2022-08-20T09:34:52.713Z,89.89
2022-08-20T09:35:52.555Z,89.98
2022-08-20T09:36:52.538Z,91.82
2022-08-20T09:37:52.608Z,93.02
2022-08-20T09:38:52.512Z,94.48
2022-08-20T09:39:52.530Z,93.80
2022-08-20T09:49:52.320Z,99.65
2022-08-20T09:50:52.307Z,99.99
2022-08-20T09:51:52.287Z,98.78
2022-08-20T09:52:52.274Z,97.52
2022-08-20T09:53:52.260Z,98.83
2022-08-20T09:54:52.238Z,97.67
2022-08-20T09:55:52.222Z,95.64
2022-08-20T09:56:52.206Z,96.75
2022-08-20T09:57:52.237Z,97.62
2022-08-20T09:58:52.173Z,96.89
2022-08-20T09:59:52.154Z,97.28
2022-08-20T10:00:52.144Z,95.35
2022-08-20T10:01:52.191Z,96.03
2022-08-20T10:02:52.104Z,97.47
2022-08-20T10:03:52.087Z,96.89
2022-08-20T10:04:52.071Z,96.41
2022-08-20T10:05:52.057Z,97.38
2022-08-20T10:06:52.038Z,99.31
2022-08-20T10:07:52.112Z,97.14
2022-08-20T10:08:52.004Z,98.68
2022-08-20T10:09:51.984Z,97.14
2022-08-20T10:10:51.970Z,96.26
2022-08-20T10:11:51.953Z,94.24
2022-08-20T10:12:54.906Z,93.95
2022-08-20T10:13:51.920Z,95.40
2022-08-20T10:14:51.902Z,94.29
2022-08-20T10:15:51.893Z,95.06
2022-08-20T10:16:51.868Z,93.51
2022-08-20T10:17:51.848Z,92.69
2022-08-20T10:18:51.834Z,94.43
2022-08-20T10:19:51.817Z,94.43
2022-08-20T10:20:51.809Z,94.18
2022-08-20T10:21:51.783Z,93.51
2022-08-20T10:30:51.636Z,91.77
2022-08-20T10:31:51.617Z,89.74
2022-08-20T10:32:51.601Z,90.12
2022-08-20T10:33:51.583Z,91.04
2022-08-20T10:34:51.566Z,90.17
2022-08-20T10:35:51.558Z,88.43
2022-08-20T10:36:51.534Z,88.43
2022-08-20T10:37:51.527Z,87.27
2022-08-20T10:38:51.505Z,86.88
2022-08-20T10:39:51.601Z,87.55
2022-08-20T10:40:52.544Z,87.85
2022-08-20T10:41:51.456Z,87.17
2022-08-20T10:42:51.436Z,88.67
2022-08-20T10:43:51.419Z,88.57
2022-08-20T10:44:51.405Z,88.57
2022-08-20T10:45:51.390Z,89.64
2022-08-20T10:46:51.369Z,89.64
2022-08-20T10:47:51.352Z,92.16
2022-08-20T10:48:51.336Z,92.40
2022-08-20T10:49:51.322Z,92.79
2022-08-20T10:50:51.306Z,91.91
2022-08-20T10:51:51.285Z,92.64
2022-08-20T10:52:51.272Z,92.16
2022-08-20T10:53:51.252Z,91.04
2022-08-20T10:54:51.237Z,90.07
2022-08-20T10:55:51.218Z,90.17
2022-08-20T10:56:51.201Z,87.36
2022-08-20T10:57:51.185Z,90.07
2022-08-20T10:58:51.169Z,89.69
2022-08-20T10:59:51.159Z,88.71
2022-08-20T11:00:51.139Z,88.62
2022-08-20T11:01:51.153Z,89.69
2022-08-20T11:02:51.103Z,89.97
2022-08-20T11:08:08.514Z,84.61
2022-08-20T11:08:51.004Z,84.42
2022-08-20T11:09:50.987Z,86.55
2022-08-20T11:10:50.969Z,86.55
2022-08-20T11:11:50.954Z,88.34
2022-08-20T11:12:50.941Z,89.01
2022-08-20T11:13:50.921Z,89.69
2022-08-20T11:14:50.901Z,89.50
2022-08-20T11:15:50.886Z,92.30
2022-08-20T11:16:50.878Z,94.76
2022-08-20T11:17:51.042Z,94.28
2022-08-20T11:18:50.834Z,93.51
2022-08-20T11:19:50.821Z,94.14
2022-08-20T11:20:50.800Z,95.20
2022-08-20T11:21:50.784Z,95.01
2022-08-20T11:22:50.767Z,94.53
2022-08-20T11:23:50.749Z,94.33
2022-08-20T11:24:50.732Z,96.89
2022-08-20T11:25:50.728Z,95.34
2022-08-20T11:26:50.703Z,94.71
2022-08-20T11:27:50.748Z,94.04
2022-08-20T11:28:50.661Z,91.38
2022-08-20T11:29:50.649Z,92.64
2022-08-20T11:30:50.633Z,90.99
2022-08-20T11:31:50.618Z,91.77
2022-08-20T11:32:50.599Z,90.12
2022-08-20T11:33:50.582Z,89.74
2022-08-20T11:34:50.564Z,89.83
2022-08-20T11:35:50.555Z,88.91
2022-08-20T11:36:50.530Z,89.35
2022-08-20T11:37:50.649Z,89.64
2022-08-20T11:38:50.502Z,89.15
2022-08-20T11:39:50.546Z,88.87
2022-08-20T11:41:54.743Z,88.09
2022-08-20T11:43:13.201Z,88.87
2022-08-20T11:44:10.408Z,88.09
2022-08-20T11:44:50.395Z,88.96
2022-08-20T11:45:50.430Z,89.35
2022-08-20T11:46:50.369Z,88.77
2022-08-20T11:47:50.396Z,87.81
2022-08-20T11:48:50.336Z,88.53
2022-08-20T11:49:50.317Z,88.73
2022-08-20T11:50:50.295Z,89.31
2022-08-20T11:51:50.416Z,89.98
2022-08-20T11:52:50.261Z,90.56
2022-08-20T11:53:50.254Z,91.05
2022-08-20T11:54:54.354Z,90.12
2022-08-20T11:55:50.216Z,89.64
2022-08-20T11:56:50.192Z,90.03
2022-08-20T11:57:50.236Z,90.61
2022-08-20T11:58:50.167Z,89.83
2022-08-20T11:59:50.142Z,88.13
2022-08-20T12:00:50.127Z,88.62
2022-08-20T12:02:03.161Z,88.62
2022-08-20T12:02:50.359Z,89.88
2022-08-20T12:03:50.081Z,89.83
2022-08-20T12:04:50.057Z,89.74
2022-08-20T12:05:50.047Z,90.90
2022-08-20T12:06:50.023Z,90.12
2022-08-20T12:07:50.009Z,88.73
2022-08-20T12:08:49.991Z,89.89
2022-08-20T12:09:51.226Z,90.75
2022-08-20T12:16:49.856Z,90.23
2022-08-20T12:17:49.837Z,90.71
2022-08-20T12:59:49.115Z,81.95
2022-08-20T13:00:50.560Z,82.58
2022-08-20T13:01:49.126Z,83.69
2022-08-20T13:40:49.054Z,78.56
2022-08-20T13:41:48.410Z,78.66
2022-08-20T13:42:48.391Z,77.11
2022-08-20T13:43:48.376Z,76.82
2022-08-20T13:44:48.360Z,77.40
2022-08-20T13:45:48.344Z,77.78
2022-08-20T13:46:48.326Z,79.14
2022-08-20T13:47:48.313Z,78.17
2022-08-20T14:20:47.749Z,76.33
2022-08-20T14:21:47.743Z,76.14
2022-08-20T14:22:47.717Z,76.04
2022-08-20T14:23:47.703Z,75.37
2022-08-20T14:24:47.682Z,75.17
2022-08-20T14:25:47.670Z,75.21
2022-08-20T14:26:47.652Z,74.15
2022-08-20T14:27:47.635Z,73.57
2022-08-20T14:28:47.615Z,73.75
2022-08-20T14:29:47.600Z,73.47
2022-08-20T14:30:52.630Z,74.82
2022-08-20T14:31:47.569Z,74.05
2022-08-20T15:03:47.033Z,71.34
2022-08-20T15:04:51.652Z,72.05
2022-08-20T15:05:46.999Z,71.08
2022-08-20T15:06:46.985Z,70.86
2022-08-20T15:07:46.968Z,70.70
2022-08-20T15:08:46.954Z,70.18
2022-08-20T15:09:46.934Z,70.11
2022-08-20T15:10:46.924Z,70.47
2022-08-20T15:11:46.901Z,70.27
2022-08-20T15:12:46.888Z,71.08
2022-08-20T15:13:46.869Z,71.18
2022-08-20T15:40:46.431Z,68.56
2022-08-20T15:41:46.409Z,68.27
2022-08-20T15:42:46.683Z,68.76
2022-08-20T15:43:46.376Z,67.79
2022-08-20T15:44:46.361Z,68.85
2022-08-20T15:45:46.343Z,67.79
2022-08-20T15:46:46.330Z,68.24
2022-08-20T15:47:46.314Z,68.82
2022-08-20T15:48:46.294Z,68.82
2022-08-20T15:49:46.276Z,69.01
2022-08-20T15:50:46.262Z,69.40
2022-08-20T15:51:46.245Z,69.31
2022-08-20T15:52:46.232Z,68.82
2022-08-20T15:53:46.210Z,68.79
2022-08-20T16:20:48.011Z,67.95
2022-08-20T16:21:45.748Z,67.56
2022-08-20T16:22:45.733Z,67.43
2022-08-20T16:23:45.716Z,67.43
2022-08-20T16:24:45.701Z,68.01
2022-08-20T16:25:45.684Z,68.88
2022-08-20T16:26:45.666Z,69.08
2022-08-20T16:27:45.648Z,68.98
2022-08-20T16:28:45.632Z,69.37
2022-08-20T16:29:45.615Z,69.40
2022-08-20T16:30:45.601Z,68.63
2022-08-20T16:31:45.582Z,68.15
2022-08-20T16:32:45.567Z,68.91
2022-08-20T16:33:45.549Z,69.11
2022-08-20T16:34:45.542Z,68.73
2022-08-20T16:35:45.523Z,68.79
2022-08-20T16:36:45.502Z,68.30
2022-08-20T16:57:45.151Z,70.10
2022-08-20T16:58:45.133Z,70.10
2022-08-20T16:59:45.116Z,70.68
2022-08-20T17:00:45.698Z,69.92
2022-08-20T17:01:45.081Z,70.10
2022-08-20T17:02:45.065Z,69.92
2022-08-20T17:03:45.048Z,69.53
2022-08-20T17:04:45.032Z,69.68
2022-08-20T17:05:45.015Z,70.36
2022-08-20T17:06:45.001Z,69.98
2022-08-20T17:07:46.292Z,70.10
2022-08-20T17:08:44.966Z,70.20
2022-08-20T17:09:44.948Z,70.07
2022-08-20T17:10:44.929Z,70.20
2022-08-20T17:11:44.914Z,70.20
2022-08-20T17:12:44.903Z,69.14
2022-08-20T17:13:44.882Z,71.08
2022-08-20T17:14:48.442Z,69.72
2022-08-20T17:34:44.525Z,68.49
2022-08-20T17:35:44.509Z,68.69
2022-08-20T17:36:44.494Z,68.21
2022-08-20T17:37:44.474Z,68.11
2022-08-20T17:38:44.467Z,69.17
2022-08-20T17:39:44.502Z,68.30
2022-08-20T17:40:44.428Z,68.59
2022-08-20T17:41:44.408Z,68.85
2022-08-20T17:42:44.392Z,69.24
2022-08-20T17:43:44.378Z,69.66
2022-08-20T17:44:44.359Z,68.88
2022-08-20T17:45:44.351Z,68.59
2022-08-20T17:46:44.322Z,68.88
2022-08-20T17:47:44.310Z,69.04
2022-08-20T17:48:44.292Z,68.59
2022-08-20T17:49:44.273Z,68.46
2022-08-20T17:50:44.258Z,69.37
2022-08-20T17:51:44.243Z,68.49
2022-08-20T17:52:44.223Z,68.66
2022-08-20T17:53:44.209Z,69.62
2022-08-20T17:54:44.189Z,69.14
2022-08-20T17:55:44.172Z,68.69
2022-08-20T17:56:44.166Z,68.75
2022-08-20T17:57:44.138Z,68.56
2022-08-20T17:58:54.398Z,68.37
2022-08-20T18:12:43.888Z,71.62
2022-08-20T18:13:44.977Z,70.65
2022-08-20T18:14:43.854Z,71.42
2022-08-20T18:15:43.841Z,71.33
2022-08-20T18:16:43.820Z,71.72
2022-08-20T18:17:43.801Z,70.94
2022-08-20T18:18:57.113Z,71.04
2022-08-20T18:19:43.769Z,71.04
2022-08-20T18:20:43.756Z,71.52
2022-08-20T18:21:43.733Z,72.00
2022-08-20T18:22:43.716Z,72.30
2022-08-20T18:23:47.522Z,70.46
2022-08-20T18:24:43.684Z,70.75
2022-08-20T18:25:43.669Z,71.33
2022-08-20T18:26:43.649Z,72.49
2022-08-20T18:27:43.630Z,71.04
2022-08-20T18:28:43.618Z,71.58
2022-08-20T18:29:43.597Z,72.58
2022-08-20T18:30:43.582Z,71.68
2022-08-20T18:31:43.569Z,71.78
2022-08-20T18:32:43.547Z,72.45
2022-08-20T18:33:43.528Z,73.22
2022-08-20T18:34:43.522Z,72.26
2022-08-20T18:35:46.103Z,73.22
2022-08-20T18:36:43.488Z,73.03
2022-08-20T18:37:43.460Z,72.64
2022-08-20T18:38:43.447Z,73.03
2022-08-20T18:39:43.477Z,72.84
2022-08-20T18:40:43.410Z,72.26
2022-08-20T18:55:43.154Z,79.27
2022-08-20T18:56:43.141Z,79.08
2022-08-20T18:57:43.120Z,77.05
2022-08-20T18:58:43.105Z,77.34
2022-08-20T18:59:43.089Z,77.83
2022-08-20T19:00:43.089Z,77.73
2022-08-20T19:01:43.118Z,76.86
2022-08-20T19:02:43.036Z,76.86
2022-08-20T19:03:43.018Z,76.95
2022-08-20T19:04:43.000Z,77.05
2022-08-20T19:05:42.989Z,78.41
2022-08-20T19:06:42.970Z,81.20
2022-08-20T19:07:47.984Z,81.59
2022-08-20T19:08:42.935Z,81.68
2022-08-20T19:09:42.914Z,81.78
2022-08-20T19:10:42.896Z,82.36
2022-08-20T19:11:42.886Z,82.26
2022-08-20T19:12:42.863Z,81.20
2022-08-20T19:13:42.849Z,80.24
2022-08-20T19:14:42.836Z,80.24
2022-08-20T19:15:42.815Z,80.33
2022-08-20T19:16:42.798Z,79.95
2022-08-20T19:17:42.778Z,80.24
2022-08-20T19:18:42.762Z,80.24
2022-08-20T19:19:42.748Z,80.14
2022-08-20T19:20:42.737Z,79.85
2022-08-20T19:21:42.709Z,79.56
2022-08-20T19:22:42.691Z,79.27
2022-08-20T19:33:44.219Z,79.24
2022-08-20T19:34:42.487Z,80.00
2022-08-20T19:35:42.469Z,79.52
2022-08-20T19:36:42.462Z,80.49
2022-08-20T19:37:51.049Z,80.24
2022-08-20T19:38:42.416Z,79.91
2022-08-20T19:39:42.446Z,80.43
2022-08-20T19:40:43.586Z,80.49
2022-08-20T19:41:42.365Z,80.43
2022-08-20T19:42:42.351Z,80.20
2022-08-20T19:43:42.335Z,80.78
2022-08-20T19:44:42.314Z,80.49
2022-08-20T19:45:42.295Z,81.16
2022-08-20T19:46:42.281Z,81.07
2022-08-20T19:47:42.264Z,80.68
2022-08-20T19:48:42.245Z,80.49
2022-08-20T19:49:42.823Z,81.55
2022-08-20T19:50:42.209Z,81.26
2022-08-20T19:51:45.860Z,81.16
2022-08-20T19:52:42.173Z,80.49
2022-08-20T19:53:42.157Z,80.78
2022-08-20T19:54:42.139Z,80.87
2022-08-20T19:55:42.123Z,81.74
2022-08-20T19:56:42.104Z,81.93
2022-08-20T19:57:42.086Z,82.23
2022-08-20T19:58:42.078Z,83.09
2022-08-20T20:04:54.972Z,84.01
2022-08-20T20:05:41.951Z,83.83
2022-08-20T20:06:41.931Z,83.63
2022-08-20T20:07:41.918Z,84.11
2022-08-20T20:08:41.895Z,83.63
2022-08-20T20:09:41.877Z,83.63
2022-08-20T20:10:41.862Z,82.96
2022-08-20T20:11:41.852Z,83.59
2022-08-20T20:12:41.826Z,84.36
2022-08-20T20:13:41.808Z,83.78
2022-08-20T20:14:41.802Z,85.23
2022-08-20T20:15:41.773Z,85.23
2022-08-20T20:16:41.762Z,85.52
2022-08-20T20:17:41.740Z,85.42
2022-08-20T20:18:41.723Z,85.33
2022-08-20T20:19:41.702Z,84.84
2022-08-20T20:20:55.754Z,84.84
2022-08-20T20:21:41.667Z,85.13
2022-08-20T20:22:41.658Z,86.10
2022-08-20T20:23:46.305Z,85.86
2022-08-20T20:24:41.615Z,86.15
2022-08-20T20:25:41.596Z,86.73
2022-08-20T20:26:41.576Z,87.21
2022-08-20T20:27:41.562Z,88.17
2022-08-20T20:28:41.544Z,88.56
2022-08-20T20:29:41.525Z,89.33
2022-08-20T20:30:41.509Z,91.69
2022-08-20T20:31:41.492Z,93.24
2022-08-20T20:32:41.474Z,93.81
2022-08-20T20:33:44.122Z,93.81
2022-08-20T20:34:55.486Z,93.72
2022-08-20T20:35:41.429Z,93.91
2022-08-20T20:36:41.402Z,93.81
2022-08-20T20:37:49.656Z,94.01
2022-08-20T20:42:41.294Z,89.77
2022-08-20T20:43:41.281Z,89.19
2022-08-20T20:44:41.259Z,89.29
2022-08-20T20:45:41.241Z,89.96
2022-08-20T20:46:41.229Z,89.09
2022-08-20T20:47:41.205Z,89.09
2022-08-20T20:48:41.186Z,89.19
2022-08-20T20:49:41.168Z,92.13
2022-08-20T20:50:41.152Z,93.43
2022-08-20T20:51:41.133Z,94.68
2022-08-20T20:52:41.123Z,95.55
2022-08-20T20:53:48.406Z,96.03
2022-08-20T20:54:41.077Z,96.51
2022-08-20T20:55:41.061Z,96.80
2022-08-20T20:56:41.045Z,96.32
2022-08-20T20:57:41.025Z,95.94
2022-08-20T20:58:41.007Z,95.94
2022-08-20T20:59:40.991Z,95.89
2022-08-20T21:00:40.971Z,95.60
2022-08-20T21:01:50.256Z,94.73
2022-08-20T21:02:40.941Z,94.64
2022-08-20T21:03:40.915Z,94.15
2022-08-20T21:04:42.784Z,92.90
2022-08-20T21:05:40.881Z,93.38
2022-08-20T21:06:40.865Z,92.90
2022-08-20T21:07:40.847Z,93.09
2022-08-20T21:08:40.828Z,93.48
2022-08-20T21:09:40.816Z,93.38
2022-08-20T21:10:40.786Z,93.09
2022-08-20T21:11:40.772Z,92.66
2022-08-20T21:12:40.761Z,93.19
2022-08-20T21:13:40.734Z,94.20
2022-08-20T21:14:40.713Z,95.26
2022-08-20T21:15:40.699Z,96.03
2022-08-20T21:19:45.170Z,97.62
2022-08-20T21:20:40.606Z,97.42
2022-08-20T21:21:40.589Z,96.66
2022-08-20T21:22:40.567Z,97.14
2022-08-20T21:23:42.013Z,97.24
2022-08-20T21:24:40.534Z,97.14
2022-08-20T21:25:40.512Z,97.91
2022-08-20T21:26:40.495Z,98.53
2022-08-20T21:27:40.477Z,98.82
2022-08-20T21:28:40.458Z,99.99
2022-08-20T21:29:40.441Z,99.99
2022-08-20T21:30:40.421Z,99.99
2022-08-20T21:31:40.404Z,99.99
2022-08-20T21:32:40.384Z,99.99
2022-08-20T21:33:40.365Z,99.99
2022-08-20T21:34:40.348Z,99.99
2022-08-20T21:35:40.332Z,99.99
2022-08-20T21:36:40.312Z,99.99
2022-08-20T21:37:40.294Z,99.99
2022-08-20T21:38:40.276Z,99.99
2022-08-20T21:39:40.297Z,99.88
2022-08-20T21:40:40.236Z,99.99
2022-08-20T21:41:40.219Z,99.99
2022-08-20T21:42:40.207Z,99.99
2022-08-20T21:43:40.180Z,99.99
2022-08-20T21:44:40.161Z,99.99
2022-08-20T21:45:40.142Z,99.99
2022-08-20T21:46:40.130Z,99.99
2022-08-20T21:47:40.106Z,99.99
2022-08-20T21:48:40.092Z,99.99
2022-08-20T21:49:40.067Z,99.99
2022-08-20T21:50:40.051Z,99.99
2022-08-20T21:51:40.037Z,99.99
2022-08-20T21:52:49.427Z,99.99
2022-08-20T21:53:39.994Z,99.73
2022-08-20T21:54:39.972Z,99.30
2022-08-20T22:32:50.532Z,99.99
2022-08-20T22:33:39.243Z,99.99
2022-08-20T22:34:39.223Z,99.99
2022-08-20T23:05:38.629Z,99.99
2022-08-20T23:06:38.614Z,99.99
2022-08-20T23:07:38.592Z,99.99
2022-08-20T23:08:38.577Z,99.99
2022-08-20T23:09:38.556Z,99.99
2022-08-20T23:10:38.545Z,99.99
2022-08-20T23:46:37.846Z,99.99
2022-08-20T23:47:37.843Z,99.99
2022-08-20T23:48:37.807Z,99.99
2022-08-20T23:49:37.786Z,99.99
2022-08-20T23:50:37.766Z,99.99
2022-08-20T23:51:39.172Z,99.99
2022-08-20T23:52:37.732Z,99.99
2022-08-20T23:53:37.710Z,99.99
2022-08-20T23:54:37.695Z,99.99
2022-08-20T23:55:37.671Z,99.99
